Time;durP1;ratioP1;P1;durP2;ratioP2;P2;SDS_P1;SDS_P2;PMS_P1;PMS_P2;Temp;Humidity;BMP_temperature;BMP_pressure;BME280_temperature;BME280_humidity;BME280_pressure;Samples;Min_cycle;Max_cycle;Signal;HPM_P1;HPM_P2
2023/08/18 00:02:16;;;;;;;8.60;7.70;;;;;;;;;;110205;269;41979;-42
2023/08/18 00:04:50;;;;;;;10.00;7.90;;;;;;;;;;110146;269;38457;-42
2023/08/18 00:07:28;;;;;;;9.80;8.10;;;;;;;;;;110241;269;39688;-41
2023/08/18 00:10:03;;;;;;;9.70;7.70;;;;;;;;;;110194;269;42744;-42
2023/08/18 00:12:38;;;;;;;8.90;7.60;;;;;;;;;;110184;269;42136;-42
2023/08/18 00:15:13;;;;;;;9.90;8.10;;;;;;;;;;110140;269;44397;-41
2023/08/18 00:17:47;;;;;;;8.80;7.90;;;;;;;;;;110161;269;39555;-42
2023/08/18 00:20:22;;;;;;;9.10;8.20;;;;;;;;;;110144;269;44843;-42
2023/08/18 00:22:56;;;;;;;8.30;7.40;;;;;;;;;;110031;269;175403;-42
2023/08/18 00:25:29;;;;;;;9.80;8.00;;;;;;;;;;110130;269;44577;-42
2023/08/18 00:28:05;;;;;;;8.90;7.80;;;;;;;;;;110176;269;39582;-42
2023/08/18 00:30:39;;;;;;;9.30;8.10;;;;;;;;;;110169;269;43967;-42
2023/08/18 00:33:13;;;;;;;9.00;8.10;;;;;;;;;;110195;269;43275;-42
2023/08/18 00:35:47;;;;;;;9.10;8.10;;;;;;;;;;110146;269;44672;-42
2023/08/18 00:38:23;;;;;;;9.80;8.80;;;;;;;;;;110124;269;39614;-42
2023/08/18 00:40:57;;;;;;;9.00;8.10;;;;;;;;;;110165;269;43224;-42
2023/08/18 00:43:31;;;;;;;10.00;8.20;;;;;;;;;;110186;269;42151;-42
2023/08/18 00:46:06;;;;;;;9.40;8.50;;;;;;;;;;110117;269;44494;-42
2023/08/18 00:48:43;;;;;;;9.90;8.20;;;;;;;;;;110163;269;40979;-42
2023/08/18 00:51:17;;;;;;;9.70;8.00;;;;;;;;;;110126;269;42817;-41
2023/08/18 00:53:50;;;;;;;10.10;8.00;;;;;;;;;;110151;269;43314;-43
2023/08/18 00:56:24;;;;;;;8.80;7.70;;;;;;;;;;110098;269;44442;-42
2023/08/18 00:58:58;;;;;;;10.30;8.30;;;;;;;;;;110159;269;39660;-43
2023/08/18 01:01:34;;;;;;;11.80;8.30;;;;;;;;;;110181;269;42798;-44
2023/08/18 01:04:08;;;;;;;10.70;8.90;;;;;;;;;;110122;269;42061;-42
2023/08/18 01:06:44;;;;;;;11.50;8.60;;;;;;;;;;110161;269;45484;-43
2023/08/18 01:09:17;;;;;;;10.00;8.10;;;;;;;;;;110133;269;39736;-41
2023/08/18 01:12:03;;;;;;;10.10;8.40;;;;;;;;;;110147;269;42876;-40
2023/08/18 01:14:48;;;;;;;9.20;8.20;;;;;;;;;;110128;269;42979;-41
2023/08/18 01:17:28;;;;;;;9.30;8.30;;;;;;;;;;110136;269;44727;-41
2023/08/18 01:20:06;;;;;;;10.00;8.50;;;;;;;;;;110167;269;40875;-41
2023/08/18 01:22:42;;;;;;;9.20;7.90;;;;;;;;;;110157;269;42719;-41
2023/08/18 01:25:15;;;;;;;9.30;7.90;;;;;;;;;;110100;269;43120;-42
2023/08/18 01:27:52;;;;;;;9.70;8.40;;;;;;;;;;110029;269;38765;-42
2023/08/18 01:30:31;;;;;;;9.00;8.10;;;;;;;;;;110188;269;41176;-43
2023/08/18 01:33:21;;;;;;;9.40;8.20;;;;;;;;;;110153;269;44335;-44
2023/08/18 01:36:00;;;;;;;9.10;8.10;;;;;;;;;;110088;269;43280;-42
2023/08/18 01:38:35;;;;;;;9.10;8.20;;;;;;;;;;110148;269;39682;-42
2023/08/18 01:41:10;;;;;;;9.30;7.90;;;;;;;;;;110091;269;39732;-42
2023/08/18 01:43:45;;;;;;;9.20;8.20;;;;;;;;;;110091;269;43957;-41
2023/08/18 01:46:19;;;;;;;9.60;7.90;;;;;;;;;;110102;269;43147;-42
2023/08/18 01:48:54;;;;;;;9.20;7.90;;;;;;;;;;110183;269;39888;-41
2023/08/18 01:51:28;;;;;;;8.50;7.50;;;;;;;;;;110121;269;41813;-41
2023/08/18 01:54:02;;;;;;;9.20;7.80;;;;;;;;;;110132;269;43333;-43
2023/08/18 01:56:36;;;;;;;8.50;7.70;;;;;;;;;;110119;269;42038;-42
2023/08/18 01:59:09;;;;;;;8.50;7.60;;;;;;;;;;110182;269;38756;-42
2023/08/18 02:01:45;;;;;;;8.70;7.60;;;;;;;;;;110165;269;39724;-42
2023/08/18 02:04:19;;;;;;;8.80;7.80;;;;;;;;;;110184;269;42850;-42
2023/08/18 02:06:52;;;;;;;9.50;7.50;;;;;;;;;;110124;269;42164;-41
2023/08/18 02:09:27;;;;;;;8.20;7.30;;;;;;;;;;110183;269;40067;-42
2023/08/18 02:12:03;;;;;;;8.90;7.50;;;;;;;;;;110185;269;40900;-44
2023/08/18 02:14:38;;;;;;;8.50;7.40;;;;;;;;;;110166;269;42754;-42
2023/08/18 02:17:13;;;;;;;7.70;6.80;;;;;;;;;;110123;269;42027;-42
2023/08/18 02:19:48;;;;;;;8.00;7.20;;;;;;;;;;110179;269;38753;-42
2023/08/18 02:22:26;;;;;;;9.00;7.10;;;;;;;;;;110163;269;39638;-41
2023/08/18 02:24:59;;;;;;;8.10;7.30;;;;;;;;;;109962;269;42738;-42
2023/08/18 02:27:37;;;;;;;7.80;6.60;;;;;;;;;;110065;269;42088;-41
2023/08/18 02:30:18;;;;;;;7.80;6.80;;;;;;;;;;110136;269;39897;-41
2023/08/18 02:32:51;;;;;;;7.80;6.80;;;;;;;;;;110105;269;39631;-41
2023/08/18 02:35:24;;;;;;;8.30;6.80;;;;;;;;;;110156;269;42465;-43
2023/08/18 02:37:59;;;;;;;7.70;6.90;;;;;;;;;;110084;269;42076;-41
2023/08/18 02:40:35;;;;;;;7.60;6.20;;;;;;;;;;110097;269;40058;-42
2023/08/18 02:43:14;;;;;;;7.90;6.80;;;;;;;;;;110107;269;39622;-42
2023/08/18 02:45:52;;;;;;;7.60;6.60;;;;;;;;;;110095;269;42902;-42
2023/08/18 02:48:30;;;;;;;7.40;6.30;;;;;;;;;;110023;269;43455;-41
2023/08/18 02:51:09;;;;;;;7.10;6.00;;;;;;;;;;110101;269;38849;-41
2023/08/18 02:53:48;;;;;;;7.40;6.30;;;;;;;;;;110113;269;39628;-41
2023/08/18 02:56:29;;;;;;;7.30;6.40;;;;;;;;;;110006;269;175348;-41
2023/08/18 02:59:06;;;;;;;7.90;6.10;;;;;;;;;;110052;269;41742;-41
2023/08/18 03:01:40;;;;;;;7.30;6.50;;;;;;;;;;110142;269;38625;-41
2023/08/18 03:04:18;;;;;;;7.70;6.10;;;;;;;;;;110114;269;39799;-43
2023/08/18 03:06:53;;;;;;;6.70;6.00;;;;;;;;;;110134;269;42831;-41
2023/08/18 03:09:27;;;;;;;6.80;6.00;;;;;;;;;;110093;269;48984;-41
2023/08/18 03:12:01;;;;;;;7.30;5.70;;;;;;;;;;110018;269;191617;-43
2023/08/18 03:14:36;;;;;;;6.70;5.80;;;;;;;;;;110039;269;175363;-41
2023/08/18 03:17:13;;;;;;;6.80;6.10;;;;;;;;;;110145;269;42699;-41
2023/08/18 03:19:48;;;;;;;7.40;6.00;;;;;;;;;;110109;269;49175;-41
2023/08/18 03:22:22;;;;;;;8.30;6.30;;;;;;;;;;110147;269;38737;-42
2023/08/18 03:24:56;;;;;;;6.60;5.70;;;;;;;;;;110144;269;39573;-42
2023/08/18 03:27:31;;;;;;;7.20;6.10;;;;;;;;;;110152;269;42486;-42
2023/08/18 03:30:07;;;;;;;6.80;5.80;;;;;;;;;;110112;269;47763;-42
2023/08/18 03:32:42;;;;;;;7.30;6.10;;;;;;;;;;110143;269;39766;-42
2023/08/18 03:35:18;;;;;;;6.50;5.70;;;;;;;;;;110128;269;40779;-42
2023/08/18 03:37:52;;;;;;;7.40;6.00;;;;;;;;;;110152;269;43019;-41
2023/08/18 03:40:32;;;;;;;6.40;5.60;;;;;;;;;;110145;269;41988;-41
2023/08/18 03:43:06;;;;;;;7.40;6.50;;;;;;;;;;110175;269;38865;-42
2023/08/18 03:45:41;;;;;;;7.10;6.00;;;;;;;;;;110136;269;39729;-41
2023/08/18 03:48:16;;;;;;;7.70;6.10;;;;;;;;;;110128;269;42850;-41
2023/08/18 03:50:50;;;;;;;6.80;5.70;;;;;;;;;;110134;269;48429;-42
2023/08/18 03:53:25;;;;;;;6.40;5.70;;;;;;;;;;110154;269;39838;-42
2023/08/18 03:56:03;;;;;;;7.20;5.60;;;;;;;;;;110146;269;39630;-41
2023/08/18 03:58:39;;;;;;;7.10;5.80;;;;;;;;;;110087;269;42810;-42
2023/08/18 04:01:16;;;;;;;7.30;5.40;;;;;;;;;;110196;269;43425;-41
2023/08/18 04:03:53;;;;;;;7.40;5.60;;;;;;;;;;110163;269;38981;-42
2023/08/18 04:06:29;;;;;;;6.20;5.60;;;;;;;;;;110145;269;41132;-42
2023/08/18 04:09:15;;;;;;;7.10;5.60;;;;;;;;;;110075;269;43991;-41
2023/08/18 04:11:53;;;;;;;6.20;5.40;;;;;;;;;;110143;269;42068;-44
2023/08/18 04:14:28;;;;;;;6.50;5.70;;;;;;;;;;110183;269;38414;-42
2023/08/18 04:17:06;;;;;;;7.20;5.30;;;;;;;;;;110148;269;39835;-42
2023/08/18 04:19:42;;;;;;;6.80;5.60;;;;;;;;;;110101;269;42748;-42
2023/08/18 04:22:22;;;;;;;6.60;5.70;;;;;;;;;;110152;269;42504;-42
2023/08/18 04:25:01;;;;;;;6.40;5.10;;;;;;;;;;110137;269;39004;-44
2023/08/18 04:27:35;;;;;;;5.90;5.10;;;;;;;;;;110155;269;40254;-42
2023/08/18 04:30:13;;;;;;;6.80;5.20;;;;;;;;;;110098;269;42815;-42
2023/08/18 04:32:48;;;;;;;6.40;5.20;;;;;;;;;;110154;269;42011;-42
2023/08/18 04:35:31;;;;;;;6.00;5.10;;;;;;;;;;110115;269;38599;-45
2023/08/18 04:38:13;;;;;;;6.50;5.00;;;;;;;;;;110002;269;176522;-43
2023/08/18 04:40:59;;;;;;;6.50;5.20;;;;;;;;;;110079;269;43704;-43
2023/08/18 04:43:39;;;;;;;6.40;5.00;;;;;;;;;;110128;269;42033;-47
2023/08/18 04:46:18;;;;;;;5.80;4.60;;;;;;;;;;110133;269;38470;-42
2023/08/18 04:48:57;;;;;;;6.20;5.10;;;;;;;;;;110151;269;40762;-41
2023/08/18 04:51:35;;;;;;;5.80;4.60;;;;;;;;;;110060;269;42923;-42
2023/08/18 04:54:11;;;;;;;6.10;5.10;;;;;;;;;;110138;269;42171;-42
2023/08/18 04:56:47;;;;;;;5.60;5.00;;;;;;;;;;110038;269;175288;-43
2023/08/18 04:59:27;;;;;;;;;;;;;;;;;;110103;269;39710;-42
2023/08/18 05:02:04;;;;;;;5.90;4.80;;;;;;;;;;110058;269;44297;-42
2023/08/18 05:04:45;;;;;;;6.40;4.90;;;;;;;;;;110107;269;42282;-43
2023/08/18 05:07:21;;;;;;;6.80;5.10;;;;;;;;;;110164;269;38415;-41
2023/08/18 05:09:55;;;;;;;6.40;4.70;;;;;;;;;;109926;269;40799;-42
2023/08/18 05:12:37;;;;;;;5.60;4.80;;;;;;;;;;110120;269;50620;-41
2023/08/18 05:15:16;;;;;;;6.60;4.70;;;;;;;;;;110106;269;42198;-45
2023/08/18 05:17:55;;;;;;;5.80;4.60;;;;;;;;;;110120;269;38936;-42
2023/08/18 05:20:38;;;;;;;5.80;4.90;;;;;;;;;;110123;269;39879;-42
2023/08/18 05:23:17;;;;;;;5.90;5.00;;;;;;;;;;110128;269;42789;-42
2023/08/18 05:25:56;;;;;;;6.80;4.80;;;;;;;;;;110117;269;42447;-42
2023/08/18 05:28:32;;;;;;;5.80;4.70;;;;;;;;;;110163;269;38799;-41
2023/08/18 05:31:10;;;;;;;6.60;5.10;;;;;;;;;;110071;269;42104;-41
2023/08/18 05:33:44;;;;;;;6.20;4.90;;;;;;;;;;110105;269;42982;-42
2023/08/18 05:36:19;;;;;;;5.50;4.80;;;;;;;;;;110096;269;41924;-41
2023/08/18 05:38:57;;;;;;;6.60;5.20;;;;;;;;;;109935;269;38738;-42
2023/08/18 05:41:35;;;;;;;6.80;5.90;;;;;;;;;;110089;269;40068;-43
2023/08/18 05:44:09;;;;;;;7.20;5.90;;;;;;;;;;110151;269;43219;-42
2023/08/18 05:46:46;;;;;;;7.80;6.20;;;;;;;;;;110098;269;42045;-41
2023/08/18 05:49:20;;;;;;;7.50;6.50;;;;;;;;;;110141;269;38726;-41
2023/08/18 05:51:56;;;;;;;7.80;6.30;;;;;;;;;;110113;269;41076;-42
2023/08/18 05:54:32;;;;;;;8.00;6.50;;;;;;;;;;110132;269;42504;-42
2023/08/18 05:57:07;;;;;;;7.30;6.10;;;;;;;;;;110155;269;42025;-42
2023/08/18 05:59:44;;;;;;;8.80;6.30;;;;;;;;;;110145;269;38675;-42
2023/08/18 06:02:20;;;;;;;7.20;6.10;;;;;;;;;;110078;269;39542;-41
2023/08/18 06:04:59;;;;;;;7.30;5.70;;;;;;;;;;110148;269;44937;-41
2023/08/18 06:07:35;;;;;;;7.90;6.00;;;;;;;;;;110121;269;42457;-42
2023/08/18 06:10:13;;;;;;;7.90;5.90;;;;;;;;;;110150;269;38688;-42
2023/08/18 06:12:50;;;;;;;7.40;5.90;;;;;;;;;;110094;269;39723;-42
2023/08/18 06:15:27;;;;;;;6.70;5.80;;;;;;;;;;110136;269;42865;-42
2023/08/18 06:18:06;;;;;;;7.30;5.80;;;;;;;;;;110157;269;42138;-41
2023/08/18 06:20:44;;;;;;;7.00;5.60;;;;;;;;;;110106;269;38789;-42
2023/08/18 06:23:21;;;;;;;7.40;5.90;;;;;;;;;;110050;269;39530;-41
2023/08/18 06:25:57;;;;;;;6.40;5.60;;;;;;;;;;110147;269;42779;-42
2023/08/18 06:28:33;;;;;;;6.80;5.40;;;;;;;;;;109905;269;42020;-41
2023/08/18 06:31:09;;;;;;;7.40;5.70;;;;;;;;;;110098;269;38843;-41
2023/08/18 06:33:43;;;;;;;6.40;5.50;;;;;;;;;;110062;269;41027;-41
2023/08/18 06:36:19;;;;;;;7.30;5.60;;;;;;;;;;110054;269;42960;-42
2023/08/18 06:38:57;;;;;;;6.90;5.50;;;;;;;;;;110076;269;42198;-42
2023/08/18 06:41:37;;;;;;;8.00;5.60;;;;;;;;;;109834;269;38930;-41
2023/08/18 06:44:12;;;;;;;7.10;5.80;;;;;;;;;;110040;269;45529;-41
2023/08/18 06:46:49;;;;;;;6.70;5.60;;;;;;;;;;110095;269;43086;-42
2023/08/18 06:49:25;;;;;;;6.60;5.60;;;;;;;;;;110050;269;41770;-42
2023/08/18 06:52:00;;;;;;;7.50;5.80;;;;;;;;;;109958;269;174822;-42
2023/08/18 06:54:34;;;;;;;7.50;5.90;;;;;;;;;;110119;269;39463;-47
2023/08/18 06:57:08;;;;;;;7.60;5.90;;;;;;;;;;110128;269;43998;-46
2023/08/18 06:59:41;;;;;;;6.90;6.10;;;;;;;;;;110133;269;41988;-49
2023/08/18 07:02:15;;;;;;;6.80;5.80;;;;;;;;;;110007;261;38813;-43
2023/08/18 07:04:50;;;;;;;7.30;5.60;;;;;;;;;;109815;267;45734;-41
2023/08/18 07:07:24;;;;;;;7.40;5.80;;;;;;;;;;110117;261;43977;-48
2023/08/18 07:09:58;;;;;;;7.90;5.70;;;;;;;;;;110080;269;43448;-43
2023/08/18 07:12:31;;;;;;;6.40;5.50;;;;;;;;;;110040;265;38386;-45
2023/08/18 07:15:06;;;;;;;7.50;5.90;;;;;;;;;;109943;265;175331;-42
2023/08/18 07:17:39;;;;;;;8.60;5.70;;;;;;;;;;110044;269;43813;-42
2023/08/18 07:20:17;;;;;;;7.40;5.90;;;;;;;;;;110073;268;43130;-40
2023/08/18 07:22:50;;;;;;;8.10;6.10;;;;;;;;;;110102;269;38666;-40
2023/08/18 07:25:24;;;;;;;8.00;6.00;;;;;;;;;;110071;261;48095;-39
2023/08/18 07:27:58;;;;;;;7.10;6.10;;;;;;;;;;110136;269;44119;-38
2023/08/18 07:30:32;;;;;;;7.50;5.80;;;;;;;;;;110023;269;43235;-37
2023/08/18 07:33:05;;;;;;;6.70;5.80;;;;;;;;;;110059;261;38478;-36
2023/08/18 07:35:39;;;;;;;7.20;6.00;;;;;;;;;;110023;262;45664;-36
2023/08/18 07:38:12;;;;;;;7.40;5.90;;;;;;;;;;110035;269;42472;-38
2023/08/18 07:40:46;;;;;;;8.30;6.10;;;;;;;;;;110033;266;41985;-39
2023/08/18 07:43:19;;;;;;;6.90;5.80;;;;;;;;;;110090;269;38673;-40
2023/08/18 07:45:53;;;;;;;7.00;5.90;;;;;;;;;;110086;262;47073;-40
2023/08/18 07:48:28;;;;;;;7.60;5.90;;;;;;;;;;110141;262;44081;-40
2023/08/18 07:51:02;;;;;;;6.60;5.90;;;;;;;;;;110221;261;41958;-40
2023/08/18 07:53:38;;;;;;;6.90;5.80;;;;;;;;;;110150;269;38690;-40
2023/08/18 07:56:11;;;;;;;7.40;5.90;;;;;;;;;;110186;269;45695;-41
2023/08/18 07:58:46;;;;;;;7.10;5.90;;;;;;;;;;110182;265;42735;-40
2023/08/18 08:01:19;;;;;;;7.30;5.70;;;;;;;;;;110230;269;42113;-40
2023/08/18 08:03:52;;;;;;;8.40;5.90;;;;;;;;;;110064;269;39330;-38
2023/08/18 08:06:28;;;;;;;7.60;6.10;;;;;;;;;;109460;269;892105;-37
2023/08/18 08:09:03;;;;;;;7.20;6.10;;;;;;;;;;110096;269;42914;-40
2023/08/18 08:11:43;;;;;;;7.60;6.30;;;;;;;;;;110153;265;41776;-42
2023/08/18 08:14:19;;;;;;;7.90;6.50;;;;;;;;;;110078;269;38766;-44
2023/08/18 08:16:53;;;;;;;8.80;6.80;;;;;;;;;;110087;261;39560;-44
2023/08/18 08:19:26;;;;;;;8.20;6.80;;;;;;;;;;110117;265;42733;-42
2023/08/18 08:22:02;;;;;;;8.00;7.20;;;;;;;;;;110131;269;41982;-41
2023/08/18 08:24:40;;;;;;;9.00;7.80;;;;;;;;;;110111;269;38445;-41
2023/08/18 08:27:18;;;;;;;8.40;7.50;;;;;;;;;;110108;269;39856;-42
2023/08/18 08:29:54;;;;;;;8.40;7.00;;;;;;;;;;110094;269;42993;-37
2023/08/18 08:32:27;;;;;;;8.30;7.50;;;;;;;;;;110068;269;41751;-39
2023/08/18 08:35:03;;;;;;;8.90;7.90;;;;;;;;;;110072;269;38865;-37
2023/08/18 08:37:36;;;;;;;8.60;7.70;;;;;;;;;;110137;261;39296;-40
2023/08/18 08:40:20;;;;;;;8.40;7.60;;;;;;;;;;110040;269;42833;-41
2023/08/18 08:42:56;;;;;;;8.30;7.50;;;;;;;;;;110108;261;43270;-40
2023/08/18 08:45:38;;;;;;;9.10;8.00;;;;;;;;;;110040;261;38507;-41
2023/08/18 08:48:14;;;;;;;8.80;7.90;;;;;;;;;;110138;269;40592;-42
2023/08/18 08:51:01;;;;;;;8.70;7.80;;;;;;;;;;110122;269;43175;-42
2023/08/18 08:53:44;;;;;;;9.00;8.10;;;;;;;;;;110136;269;42001;-42
2023/08/18 08:56:19;;;;;;;9.30;8.40;;;;;;;;;;110072;269;39894;-41
2023/08/18 08:58:53;;;;;;;8.40;7.60;;;;;;;;;;110123;265;39570;-42
2023/08/18 09:01:27;;;;;;;8.70;7.90;;;;;;;;;;110116;269;43930;-42
2023/08/18 09:04:03;;;;;;;8.50;7.70;;;;;;;;;;110120;269;43240;-43
2023/08/18 09:06:41;;;;;;;8.60;7.80;;;;;;;;;;110022;269;38864;-42
2023/08/18 09:09:18;;;;;;;9.00;8.10;;;;;;;;;;110092;269;39594;-42
2023/08/18 09:11:52;;;;;;;9.70;8.60;;;;;;;;;;110102;269;42937;-42
2023/08/18 09:14:26;;;;;;;8.50;7.70;;;;;;;;;;110162;261;42007;-42
2023/08/18 09:17:00;;;;;;;8.80;8.00;;;;;;;;;;110089;261;38694;-42
2023/08/18 09:19:35;;;;;;;8.70;7.90;;;;;;;;;;110149;261;39323;-41
2023/08/18 09:22:08;;;;;;;8.90;8.00;;;;;;;;;;110129;261;42782;-41
2023/08/18 09:24:42;;;;;;;10.00;8.10;;;;;;;;;;110143;266;42201;-44
2023/08/18 09:27:20;;;;;;;9.00;7.60;;;;;;;;;;110086;269;38697;-43
2023/08/18 09:29:55;;;;;;;9.10;8.20;;;;;;;;;;110137;269;40917;-45
2023/08/18 09:32:28;;;;;;;9.00;8.00;;;;;;;;;;110151;269;42636;-38
2023/08/18 09:35:02;;;;;;;9.00;8.10;;;;;;;;;;110135;269;43292;-40
2023/08/18 09:37:36;;;;;;;9.00;8.20;;;;;;;;;;110094;269;38618;-40
2023/08/18 09:40:14;;;;;;;9.00;8.20;;;;;;;;;;110093;269;39559;-41
2023/08/18 09:42:48;;;;;;;9.20;8.30;;;;;;;;;;110052;269;42710;-38
2023/08/18 09:45:26;;;;;;;8.90;8.00;;;;;;;;;;110041;265;43099;-39
2023/08/18 09:48:01;;;;;;;9.10;8.20;;;;;;;;;;110119;269;39864;-40
2023/08/18 09:50:39;;;;;;;8.50;7.70;;;;;;;;;;110083;261;41198;-39
2023/08/18 09:53:17;;;;;;;8.80;7.90;;;;;;;;;;110128;261;43915;-38
2023/08/18 09:55:54;;;;;;;8.80;7.90;;;;;;;;;;110063;269;43292;-38
2023/08/18 09:58:43;;;;;;;8.80;8.00;;;;;;;;;;110071;269;44444;-40
2023/08/18 10:01:20;;;;;;;8.10;7.40;;;;;;;;;;110089;269;39261;-40
2023/08/18 10:04:00;;;;;;;8.20;7.40;;;;;;;;;;110055;269;42785;-41
2023/08/18 10:06:39;;;;;;;8.70;7.90;;;;;;;;;;110090;269;43615;-42
2023/08/18 10:09:15;;;;;;;8.30;7.40;;;;;;;;;;110086;269;38945;-43
2023/08/18 10:11:49;;;;;;;8.20;7.20;;;;;;;;;;109472;269;890062;-39
2023/08/18 10:14:29;;;;;;;8.30;7.40;;;;;;;;;;110141;269;42469;-39
2023/08/18 10:17:06;;;;;;;8.70;7.80;;;;;;;;;;110051;269;42157;-50
2023/08/18 10:19:55;;;;;;;8.30;7.50;;;;;;;;;;110026;269;174884;-41
2023/08/18 10:22:37;;;;;;;9.00;7.50;;;;;;;;;;110062;261;39480;-40
2023/08/18 10:25:28;;;;;;;8.80;7.90;;;;;;;;;;110012;265;44164;-41
2023/08/18 10:28:04;;;;;;;8.90;8.10;;;;;;;;;;110085;261;43264;-40
2023/08/18 10:30:39;;;;;;;8.50;7.60;;;;;;;;;;110085;269;38463;-38
2023/08/18 10:33:13;;;;;;;8.60;7.70;;;;;;;;;;110037;269;41137;-42
2023/08/18 10:35:49;;;;;;;9.30;8.30;;;;;;;;;;110055;269;43087;-41
2023/08/18 10:38:29;;;;;;;8.90;8.00;;;;;;;;;;110022;262;41996;-41
2023/08/18 10:41:03;;;;;;;8.90;8.10;;;;;;;;;;110071;269;40096;-38
2023/08/18 10:43:51;;;;;;;8.60;7.80;;;;;;;;;;110105;261;40389;-38
2023/08/18 10:46:35;;;;;;;8.60;7.80;;;;;;;;;;110068;269;42944;-38
2023/08/18 10:49:08;;;;;;;9.20;8.10;;;;;;;;;;110036;269;43266;-38
2023/08/18 10:51:42;;;;;;;8.40;7.60;;;;;;;;;;110054;269;38438;-39
2023/08/18 10:54:17;;;;;;;9.10;8.20;;;;;;;;;;110057;269;39584;-42
2023/08/18 10:56:51;;;;;;;9.50;8.00;;;;;;;;;;110126;269;42771;-39
2023/08/18 10:59:27;;;;;;;9.30;8.40;;;;;;;;;;110033;269;41781;-39
2023/08/18 11:02:03;;;;;;;8.90;8.10;;;;;;;;;;110039;270;39992;-39
2023/08/18 11:04:39;;;;;;;9.10;8.30;;;;;;;;;;110058;270;39614;-39
2023/08/18 11:07:16;;;;;;;9.10;8.20;;;;;;;;;;109995;270;42775;-39
2023/08/18 11:09:49;;;;;;;9.40;8.50;;;;;;;;;;109987;270;41828;-40
2023/08/18 11:12:25;;;;;;;8.90;8.10;;;;;;;;;;110036;266;38678;-40
2023/08/18 11:15:01;;;;;;;8.80;8.00;;;;;;;;;;110041;270;39435;-39
2023/08/18 11:17:36;;;;;;;8.60;7.90;;;;;;;;;;110035;269;44103;-39
2023/08/18 11:20:15;;;;;;;8.80;8.00;;;;;;;;;;109990;269;48067;-39
2023/08/18 11:22:54;;;;;;;8.50;7.70;;;;;;;;;;110055;262;38657;-39
2023/08/18 11:25:32;;;;;;;8.50;7.70;;;;;;;;;;110022;270;40728;-39
2023/08/18 11:28:09;;;;;;;8.70;7.80;;;;;;;;;;109992;270;42469;-39
2023/08/18 11:30:43;;;;;;;8.40;7.50;;;;;;;;;;110049;269;48096;-39
2023/08/18 11:33:18;;;;;;;8.90;8.10;;;;;;;;;;110089;269;38702;-39
2023/08/18 11:35:56;;;;;;;8.70;7.90;;;;;;;;;;110125;269;39576;-39
2023/08/18 11:38:32;;;;;;;8.90;8.00;;;;;;;;;;110045;269;42915;-39
2023/08/18 11:41:06;;;;;;;8.70;7.90;;;;;;;;;;110055;269;44224;-39
2023/08/18 11:43:40;;;;;;;8.50;7.70;;;;;;;;;;110121;269;38840;-39
2023/08/18 11:46:16;;;;;;;8.80;7.80;;;;;;;;;;110086;269;39571;-39
2023/08/18 11:48:51;;;;;;;8.30;7.50;;;;;;;;;;110055;269;44415;-39
2023/08/18 11:51:25;;;;;;;8.40;7.50;;;;;;;;;;110078;269;42038;-39
2023/08/18 11:53:58;;;;;;;8.00;7.30;;;;;;;;;;110155;265;38668;-38
2023/08/18 11:56:32;;;;;;;8.50;7.50;;;;;;;;;;110100;269;39601;-35
2023/08/18 11:59:07;;;;;;;8.10;7.30;;;;;;;;;;110037;269;42895;-36
2023/08/18 12:01:43;;;;;;;8.30;7.50;;;;;;;;;;110103;269;41993;-38
2023/08/18 12:04:16;;;;;;;8.20;7.40;;;;;;;;;;110108;265;38681;-37
2023/08/18 12:06:53;;;;;;;8.30;7.50;;;;;;;;;;110099;261;39724;-37
2023/08/18 12:09:27;;;;;;;8.10;7.40;;;;;;;;;;110041;261;42504;-36
2023/08/18 12:12:12;;;;;;;8.10;7.30;;;;;;;;;;110103;269;41712;-39
2023/08/18 12:14:46;;;;;;;8.10;7.30;;;;;;;;;;110124;261;41190;-38
2023/08/18 12:17:21;;;;;;;8.20;7.40;;;;;;;;;;110062;269;39586;-37
2023/08/18 12:19:54;;;;;;;8.20;7.40;;;;;;;;;;109993;270;42762;-37
2023/08/18 12:22:30;;;;;;;8.00;7.10;;;;;;;;;;110056;270;43158;-39
2023/08/18 12:25:07;;;;;;;8.00;7.30;;;;;;;;;;110043;270;38661;-40
2023/08/18 12:27:41;;;;;;;8.00;7.20;;;;;;;;;;110079;270;39569;-45
2023/08/18 12:30:17;;;;;;;8.10;7.30;;;;;;;;;;109975;270;43062;-38
2023/08/18 12:32:51;;;;;;;8.40;7.60;;;;;;;;;;110097;262;42111;-38
2023/08/18 12:35:28;;;;;;;8.10;7.40;;;;;;;;;;110084;270;38679;-39
2023/08/18 12:38:02;;;;;;;8.20;7.50;;;;;;;;;;109855;270;192458;-37
2023/08/18 12:40:36;;;;;;;8.20;7.40;;;;;;;;;;110021;270;43968;-38
2023/08/18 12:43:10;;;;;;;8.30;7.50;;;;;;;;;;110003;261;43169;-38
2023/08/18 12:45:51;;;;;;;8.40;7.50;;;;;;;;;;110048;262;38422;-37
2023/08/18 12:48:30;;;;;;;8.70;7.80;;;;;;;;;;110165;265;39574;-40
2023/08/18 12:51:04;;;;;;;8.00;7.20;;;;;;;;;;110175;268;42743;-37
2023/08/18 12:53:40;;;;;;;7.80;7.10;;;;;;;;;;110161;268;42067;-41
2023/08/18 12:56:14;;;;;;;8.10;7.30;;;;;;;;;;110207;268;38982;-37
2023/08/18 12:58:55;;;;;;;8.00;7.20;;;;;;;;;;110179;268;39321;-39
2023/08/18 13:01:28;;;;;;;8.00;7.20;;;;;;;;;;110119;261;43999;-39
2023/08/18 13:04:05;;;;;;;7.70;7.00;;;;;;;;;;110129;268;41695;-40
2023/08/18 13:06:38;;;;;;;7.60;6.90;;;;;;;;;;110061;268;175300;-40
2023/08/18 13:09:11;;;;;;;7.50;6.80;;;;;;;;;;110165;268;40772;-42
2023/08/18 13:11:48;;;;;;;7.50;6.80;;;;;;;;;;110106;268;43933;-40
2023/08/18 13:14:21;;;;;;;7.20;6.50;;;;;;;;;;110144;268;41774;-40
2023/08/18 13:16:59;;;;;;;7.30;6.60;;;;;;;;;;110199;261;38677;-42
2023/08/18 13:19:38;;;;;;;7.60;6.90;;;;;;;;;;110169;265;39543;-38
2023/08/18 13:22:23;;;;;;;7.30;6.60;;;;;;;;;;110124;261;42456;-38
2023/08/18 13:25:02;;;;;;;7.40;6.70;;;;;;;;;;110136;268;42171;-37
2023/08/18 13:27:43;;;;;;;7.20;6.30;;;;;;;;;;110202;269;38415;-37
2023/08/18 13:30:21;;;;;;;7.30;6.60;;;;;;;;;;110178;268;39468;-40
2023/08/18 13:32:55;;;;;;;7.10;6.40;;;;;;;;;;110175;261;48474;-42
2023/08/18 13:35:31;;;;;;;6.90;6.20;;;;;;;;;;110165;268;41999;-37
2023/08/18 13:38:05;;;;;;;6.60;6.00;;;;;;;;;;110074;261;38557;-37
2023/08/18 13:40:40;;;;;;;6.60;5.90;;;;;;;;;;109428;264;891180;-36
2023/08/18 13:43:14;;;;;;;7.80;6.50;;;;;;;;;;109965;268;175212;-38
2023/08/18 13:45:50;;;;;;;6.50;5.90;;;;;;;;;;110174;264;43127;-39
2023/08/18 13:48:26;;;;;;;6.70;6.00;;;;;;;;;;110157;268;38748;-40
2023/08/18 13:51:01;;;;;;;6.50;5.80;;;;;;;;;;110129;268;39873;-37
2023/08/18 13:53:35;;;;;;;6.20;5.60;;;;;;;;;;110182;268;42720;-37
2023/08/18 13:56:10;;;;;;;6.90;5.70;;;;;;;;;;110182;268;43170;-37
2023/08/18 13:58:44;;;;;;;6.30;5.70;;;;;;;;;;110224;268;38690;-37
2023/08/18 14:01:21;;;;;;;6.40;5.80;;;;;;;;;;110160;268;39609;-37
2023/08/18 14:03:54;;;;;;;6.50;5.40;;;;;;;;;;110177;266;49001;-39
2023/08/18 14:06:28;;;;;;;6.90;5.80;;;;;;;;;;110157;268;42000;-40
2023/08/18 14:09:02;;;;;;;6.40;5.60;;;;;;;;;;110083;265;174868;-39
2023/08/18 14:11:36;;;;;;;7.10;5.70;;;;;;;;;;110174;261;39532;-40
2023/08/18 14:14:09;;;;;;;6.10;5.50;;;;;;;;;;110196;268;49181;-40
2023/08/18 14:16:44;;;;;;;6.20;5.60;;;;;;;;;;110210;261;43236;-40
2023/08/18 14:19:19;;;;;;;6.00;5.40;;;;;;;;;;110189;264;38430;-37
2023/08/18 14:21:52;;;;;;;6.40;5.60;;;;;;;;;;110115;265;39725;-40
2023/08/18 14:24:26;;;;;;;6.00;5.40;;;;;;;;;;110169;261;50201;-40
2023/08/18 14:26:59;;;;;;;6.90;5.70;;;;;;;;;;110182;264;42187;-45
2023/08/18 14:29:32;;;;;;;7.10;6.00;;;;;;;;;;110215;265;39966;-39
2023/08/18 14:32:06;;;;;;;7.40;6.70;;;;;;;;;;110145;268;39496;-40
2023/08/18 14:34:45;;;;;;;8.50;6.80;;;;;;;;;;109518;268;918420;-41
2023/08/18 14:37:21;;;;;;;8.30;7.50;;;;;;;;;;110171;265;42066;-39
2023/08/18 14:39:54;;;;;;;8.60;7.40;;;;;;;;;;109923;261;333898;-42
2023/08/18 14:42:28;;;;;;;8.90;8.10;;;;;;;;;;110064;268;39535;-40
2023/08/18 14:45:03;;;;;;;8.60;7.80;;;;;;;;;;110223;268;44225;-39
2023/08/18 14:47:37;;;;;;;9.10;8.20;;;;;;;;;;110173;265;43322;-38
2023/08/18 14:50:13;;;;;;;8.80;7.90;;;;;;;;;;110216;269;38669;-39
2023/08/18 14:52:50;;;;;;;8.90;8.00;;;;;;;;;;110040;268;175315;-40
2023/08/18 14:55:24;;;;;;;8.70;7.90;;;;;;;;;;110203;268;42793;-42
2023/08/18 14:58:02;;;;;;;8.60;7.80;;;;;;;;;;110215;265;41890;-43
2023/08/18 15:00:37;;;;;;;8.90;8.00;;;;;;;;;;110196;265;38726;-46
2023/08/18 15:03:10;;;;;;;9.10;8.30;;;;;;;;;;110207;261;39310;-44
2023/08/18 15:05:48;;;;;;;9.10;8.20;;;;;;;;;;110135;269;43079;-44
2023/08/18 15:08:21;;;;;;;9.40;8.50;;;;;;;;;;110134;268;42032;-39
2023/08/18 15:10:56;;;;;;;9.00;8.10;;;;;;;;;;110155;265;38846;-39
2023/08/18 15:13:29;;;;;;;9.20;8.30;;;;;;;;;;110149;265;39870;-39
2023/08/18 15:16:06;;;;;;;8.70;7.80;;;;;;;;;;110157;268;42764;-40
2023/08/18 15:18:40;;;;;;;8.80;7.90;;;;;;;;;;110210;261;43006;-45
2023/08/18 15:21:14;;;;;;;8.90;8.00;;;;;;;;;;110199;265;39968;-41
2023/08/18 15:23:48;;;;;;;8.70;7.90;;;;;;;;;;110063;265;39660;-40
2023/08/18 15:26:22;;;;;;;9.30;8.40;;;;;;;;;;110164;268;43780;-39
2023/08/18 15:28:55;;;;;;;8.90;8.10;;;;;;;;;;110119;269;41824;-38
2023/08/18 15:31:30;;;;;;;9.10;8.20;;;;;;;;;;110155;268;38501;-40
2023/08/18 15:34:06;;;;;;;9.20;8.30;;;;;;;;;;110073;265;39686;-40
2023/08/18 15:36:39;;;;;;;9.00;8.10;;;;;;;;;;110172;269;42899;-40